Weather reports worldwide

Advertisment
Dunstaffnage, United Kingdom (99006): temperature & dewpoint: 17.07.2019 09:00:00 - 23.07.2019 09:00:00 (BST)Dunstaffnage, United Kingdom (99006): temperature -20cm: 17.07.2019 09:00:00 - 23.07.2019 09:00:00 (BST)Dunstaffnage, United Kingdom (99006): wind speed & gusts: 17.07.2019 09:00:00 - 23.07.2019 09:00:00 (BST)Dunstaffnage, United Kingdom (99006): wind direction: 17.07.2019 09:00:00 - 23.07.2019 09:00:00 (BST)Dunstaffnage, United Kingdom (99006): precipitation: 17.07.2019 09:00:00 - 23.07.2019 09:00:00 (BST)
Date & Time tt [°C] td [°C] tt -20cm [°C] ff [km/h] ff [kn] fx [km/h] fx [kn] dd rr [mm]
23.07.2019 09:00:00 - - - - - - - - -
23.07.2019 08:00:00 18,3 15,9 - 11 6 - - SE 0,0
23.07.2019 07:00:00 17,6 15,4 - 5 3 - - W 0,0
23.07.2019 06:00:00 18,3 15,9 - 15 8 - - SSE 0,0
23.07.2019 05:00:00 18,8 16,1 - 21 11 - - S 0,0
23.07.2019 04:00:00 19,0 16,8 - 13 7 - - S 0,0
23.07.2019 03:00:00 16,2 14,5 - 0 0 - - N 0,0
23.07.2019 02:00:00 16,7 14,8 - 2 1 - - W 0,0
23.07.2019 01:00:00 18,2 14,9 - 4 2 - - E 0,0
23.07.2019 00:00:00 19,3 15,8 - 16 9 - - S 0,0
22.07.2019 23:00:00 19,7 16,2 - 18 10 - - S 0,0
22.07.2019 22:00:00 18,5 16,7 - 15 8 - - SSE 0,0
22.07.2019 21:00:00 17,5 15,9 - 5 3 - - WNW 0,0
22.07.2019 20:00:00 18,1 17,3 - 8 4 - - SSE 0,0
22.07.2019 19:00:00 18,3 17,3 - 4 2 - - NW 0,0
22.07.2019 18:00:00 18,0 17,4 - 8 4 - - SSE 0,2
22.07.2019 17:00:00 17,4 16,8 - 15 8 - - WSW 0,8
22.07.2019 16:00:00 17,1 16,5 - 15 8 - - WSW 0,4
22.07.2019 15:00:00 16,9 16,5 - 15 8 - - WSW 0,8
22.07.2019 14:00:00 17,4 16,9 - 18 10 - - SW 0,6
22.07.2019 13:00:00 17,7 17,2 - 26 14 46 25 SW 1,8
22.07.2019 12:00:00 17,6 17,0 - 26 14 48 26 SW 1,6
22.07.2019 11:00:00 18,1 17,7 - 22 12 - - SW 2,4
22.07.2019 10:00:00 17,7 17,4 16,7 21 11 - - SW 1,6
22.07.2019 09:00:00 17,0 16,7 - 22 12 - - WSW 1,4
22.07.2019 08:00:00 16,2 15,9 - 15 8 - - WSW 2,4
22.07.2019 07:00:00 14,7 14,4 - 2 1 - - NNE 1,4
22.07.2019 06:00:00 14,3 13,9 - 9 5 - - SW 2,0
22.07.2019 05:00:00 14,7 14,3 - 16 9 - - SW 0,8
22.07.2019 04:00:00 15,6 15,2 - 15 8 - - SW 1,6
22.07.2019 03:00:00 15,0 14,5 - 0 0 - - N 0,6
22.07.2019 02:00:00 15,3 14,8 - 0 0 - - N 1,0
22.07.2019 01:00:00 15,4 14,8 - 9 5 - - E 0,4
22.07.2019 00:00:00 15,7 15,0 - 9 5 - - ESE 0,2
21.07.2019 23:00:00 16,0 15,1 - 5 3 - - E 1,0
21.07.2019 22:00:00 16,1 15,1 - 13 7 - - S 1,0
21.07.2019 21:00:00 16,3 15,3 - 22 12 - - SSE 2,4
21.07.2019 20:00:00 16,3 15,2 - 16 9 - - SSE 0,8
21.07.2019 19:00:00 16,2 15,4 - 16 9 - - SSE 0,6
21.07.2019 18:00:00 15,6 14,8 - 15 8 - - ESE 0,0
21.07.2019 17:00:00 14,7 13,9 - 16 9 - - E 2,2
21.07.2019 16:00:00 15,0 13,4 - 18 10 - - S 1,2
21.07.2019 15:00:00 16,1 13,5 - 18 10 - - S 0,2
21.07.2019 14:00:00 17,5 13,2 - 15 8 - - S 0,0
21.07.2019 13:00:00 17,1 13,5 - 11 6 - - SSE 0,0
21.07.2019 12:00:00 16,3 12,3 - 16 9 - - S 0,0
21.07.2019 11:00:00 16,3 12,5 - 13 7 - - SSW 0,0
21.07.2019 10:00:00 15,2 13,2 17,2 11 6 - - SSW 0,0
21.07.2019 09:00:00 14,4 12,8 - 11 6 - - SSW 0,0
21.07.2019 08:00:00 14,2 13,3 - 8 4 - - SSW 0,6
21.07.2019 07:00:00 13,9 12,6 - 5 3 - - SW 0,4
21.07.2019 06:00:00 14,0 12,9 - 13 7 - - WSW 0,0
21.07.2019 05:00:00 13,7 12,8 - 11 6 - - WSW 0,2
21.07.2019 04:00:00 13,7 12,8 - 8 4 - - SSW 0,2
21.07.2019 03:00:00 13,9 12,7 - 11 6 - - SW 0,0
21.07.2019 02:00:00 13,6 12,7 - 2 1 - - WSW 0,2
21.07.2019 01:00:00 13,5 12,4 - 8 4 - - SSW 0,0
21.07.2019 00:00:00 13,8 12,7 - 11 6 - - WSW 0,0
20.07.2019 23:00:00 14,4 12,3 - 8 4 - - WSW 0,0
20.07.2019 22:00:00 14,7 12,1 - 9 5 - - SW 0,0
20.07.2019 21:00:00 14,6 12,1 - 8 4 - - SSW 0,0
20.07.2019 20:00:00 15,6 10,8 - 13 7 - - WSW 0,0
20.07.2019 19:00:00 17,1 11,8 - 15 8 - - W 0,0
20.07.2019 18:00:00 16,5 12,8 - 21 11 - - W 0,0
20.07.2019 17:00:00 16,0 12,1 - 26 14 - - W 0,0
20.07.2019 16:00:00 17,3 12,6 - 26 14 - - W 0,0
20.07.2019 15:00:00 19,9 13,9 - 26 14 - - W 0,0
20.07.2019 14:00:00 19,2 13,4 - 26 14 - - W 0,0
20.07.2019 13:00:00 17,8 13,2 - 18 10 - - W 0,0
20.07.2019 12:00:00 16,7 13,0 - 16 9 - - W 0,0
20.07.2019 11:00:00 16,2 13,1 - 18 10 - - WNW 0,0
20.07.2019 10:00:00 15,3 12,8 16,9 16 9 - - WNW 0,0
20.07.2019 09:00:00 14,3 12,5 - 16 9 - - WNW 0,0
20.07.2019 08:00:00 14,2 12,9 - 16 9 - - WNW 0,0
20.07.2019 07:00:00 13,7 13,0 - 5 3 - - W 0,0
20.07.2019 06:00:00 13,2 12,7 - 4 2 - - WNW 0,0
20.07.2019 05:00:00 13,0 12,6 - 4 2 - - W 0,0
20.07.2019 04:00:00 12,9 12,5 - 5 3 - - W 0,0
20.07.2019 03:00:00 12,9 12,5 - 5 3 - - SW 0,0
20.07.2019 02:00:00 13,4 13,0 - 8 4 - - WSW 0,8
20.07.2019 01:00:00 13,6 13,1 - 5 3 - - W 0,2
20.07.2019 00:00:00 13,5 13,1 - 4 2 - - WNW 4,2
19.07.2019 23:00:00 13,6 13,0 - 2 1 - - NNE 2,2
19.07.2019 22:00:00 13,7 13,0 - 2 1 - - N 3,2
19.07.2019 21:00:00 14,1 12,9 - 5 3 - - NW 2,4
19.07.2019 20:00:00 15,6 13,1 - 2 1 - - N 0,2
19.07.2019 19:00:00 16,5 12,0 - 5 3 - - NNW 0,0
19.07.2019 18:00:00 17,9 12,0 - 5 3 - - W 0,0
19.07.2019 17:00:00 19,2 14,0 - 4 2 - - NNW 0,0
19.07.2019 16:00:00 19,7 13,2 - 13 7 - - W 0,0
19.07.2019 15:00:00 19,4 14,7 - 16 9 - - W 0,0
19.07.2019 14:00:00 19,4 14,5 - 15 8 - - W 0,0
19.07.2019 13:00:00 17,3 13,7 - 13 7 - - W 0,0
19.07.2019 12:00:00 18,8 14,6 - 13 7 - - SW 0,0
19.07.2019 11:00:00 15,5 13,6 - 9 5 - - SSW 0,6
19.07.2019 10:00:00 13,5 12,3 16,2 9 5 - - SW 0,6
19.07.2019 09:00:00 13,4 12,6 - 11 6 - - S 0,6
19.07.2019 08:00:00 13,0 12,3 - 9 5 - - S 1,6
19.07.2019 07:00:00 12,9 12,2 - 11 6 - - S 0,6
19.07.2019 06:00:00 13,0 12,3 - 11 6 - - SSW 0,4
19.07.2019 05:00:00 13,1 12,3 - 11 6 - - SW 0,4
19.07.2019 04:00:00 13,1 12,2 - 11 6 - - SW 0,4
19.07.2019 03:00:00 13,5 12,2 - 11 6 - - SSW 0,2
19.07.2019 02:00:00 13,9 12,0 - 13 7 - - SSW 0,0
19.07.2019 01:00:00 13,7 12,2 - 11 6 - - SW 0,0
19.07.2019 00:00:00 13,7 12,4 - 16 9 - - SW 0,0
18.07.2019 23:00:00 13,7 12,3 - 13 7 - - SW 0,0
18.07.2019 22:00:00 13,7 12,5 - 15 8 - - SW 0,0
18.07.2019 21:00:00 13,9 12,5 - 16 9 - - SW 0,0
18.07.2019 20:00:00 14,3 12,5 - 18 10 - - SW 0,0
18.07.2019 19:00:00 14,6 12,8 - 16 9 - - SW 0,0
18.07.2019 18:00:00 14,9 12,5 - 18 10 - - SW 0,0
18.07.2019 17:00:00 15,9 13,4 - 18 10 - - SW 0,0
18.07.2019 16:00:00 16,5 13,7 - 24 13 - - SW 0,0
18.07.2019 15:00:00 16,0 14,6 - 22 12 - - WSW 0,6
18.07.2019 14:00:00 14,5 13,1 - 18 10 - - SW 0,6
18.07.2019 13:00:00 15,4 12,9 - 22 12 - - SW 0,2
18.07.2019 12:00:00 16,0 13,8 - 24 13 - - SW 0,2
18.07.2019 11:00:00 14,4 13,0 - 18 10 - - SW 0,4
18.07.2019 10:00:00 14,4 13,4 16,2 21 11 50 27 SW 0,2
18.07.2019 09:00:00 13,7 13,0 - 21 11 - - SW 3,2
18.07.2019 08:00:00 13,5 12,7 - 16 9 - - SW 0,6
18.07.2019 07:00:00 13,2 12,5 - 13 7 - - SW 0,2
18.07.2019 06:00:00 13,1 12,3 - 15 8 - - SW 0,0
18.07.2019 05:00:00 12,8 12,2 - 15 8 - - SW 0,0
18.07.2019 04:00:00 13,2 12,6 - 11 6 - - SW 0,0
18.07.2019 03:00:00 12,9 12,2 - 13 7 - - SW 0,0
18.07.2019 02:00:00 13,2 12,6 - 11 6 - - SW 0,0
18.07.2019 01:00:00 13,0 12,3 - 8 4 - - SSW 0,0
18.07.2019 00:00:00 12,5 11,9 - 4 2 - - SSW 0,0
17.07.2019 23:00:00 11,7 11,0 - 4 2 - - SSW 0,0
17.07.2019 22:00:00 12,5 11,4 - 8 4 - - SSW 0,0
17.07.2019 21:00:00 13,8 13,3 - 9 5 - - WSW 1,6
17.07.2019 20:00:00 13,9 13,3 - 13 7 - - W 1,8
17.07.2019 19:00:00 15,0 14,2 - 13 7 - - SW 0,4
17.07.2019 18:00:00 15,4 14,6 - 16 9 - - S 0,4
17.07.2019 17:00:00 15,1 14,4 - 18 10 - - S 1,2
17.07.2019 16:00:00 14,9 14,0 - 16 9 - - S 1,0
17.07.2019 15:00:00 14,9 13,8 - 15 8 - - S 1,6
17.07.2019 14:00:00 14,6 13,3 - 13 7 - - S 1,0
17.07.2019 13:00:00 15,5 12,9 - 18 10 - - S 0,0
17.07.2019 12:00:00 15,1 13,1 - 16 9 - - S 0,0
17.07.2019 11:00:00 14,8 12,9 - 18 10 - - S 0,6
17.07.2019 10:00:00 14,9 13,0 17,2 11 6 - - S 0,6
17.07.2019 09:00:00 15,0 13,0 - 9 5 - - S 0,2

tt = temperature
td = dewpoint
tt -20cm = temperature -20cm
ff = wind speed
fx = gusts
dd = wind direction
rr = precipitation

Next stations